Time;durP1;ratioP1;P1;durP2;ratioP2;P2;SDS_P1;SDS_P2;PMS_P1;PMS_P2;Temp;Humidity;BMP_temperature;BMP_pressure;BME280_temperature;BME280_humidity;BME280_pressure;Samples;Min_cycle;Max_cycle;Signal;HPM_P1;HPM_P2
2022/05/16 00:02:01;;;;;;;44.22;20.50;;;;;;;16.68;77.29;92917.56;4993841;28;20041;-74
2022/05/16 00:04:27;;;;;;;36.28;18.35;;;;;;;16.68;77.49;92910.41;4976680;28;20101;-73
2022/05/16 00:06:52;;;;;;;41.30;19.35;;;;;;;16.68;77.30;92910.41;4992519;28;20042;-73
2022/05/16 00:09:18;;;;;;;52.08;20.17;;;;;;;16.68;77.27;92910.41;4975692;28;20030;-73
2022/05/16 00:11:44;;;;;;;38.10;19.00;;;;;;;16.68;77.28;92910.41;4975681;28;20123;-74
2022/05/16 00:14:10;;;;;;;43.47;19.38;;;;;;;16.67;77.24;92911.50;4986759;28;20085;-74
2022/05/16 00:16:37;;;;;;;43.13;19.20;;;;;;;16.68;77.26;92905.13;4981379;28;20472;-73
2022/05/16 00:19:04;;;;;;;47.28;18.63;;;;;;;16.67;77.47;92908.84;4967498;28;20077;-73
2022/05/16 00:21:30;;;;;;;45.08;19.00;;;;;;;16.67;77.50;92908.84;4952511;28;20464;-74
2022/05/16 00:23:56;;;;;;;43.67;19.67;;;;;;;16.66;77.41;92912.56;4983346;28;20045;-74
2022/05/16 00:26:21;;;;;;;45.35;19.70;;;;;;;16.66;77.74;92909.94;4988316;28;20042;-73
2022/05/16 00:28:47;;;;;;;42.22;19.55;;;;;;;16.65;77.39;92900.47;4994619;28;20549;-73
2022/05/16 00:31:13;;;;;;;40.90;19.23;;;;;;;16.67;77.44;92903.56;4994350;28;20038;-74
2022/05/16 00:33:38;;;;;;;45.00;19.90;;;;;;;16.67;77.53;92906.22;4975455;28;20023;-73
2022/05/16 00:36:04;;;;;;;49.75;20.98;;;;;;;16.64;77.52;92899.69;4976210;28;20097;-73
2022/05/16 00:38:30;;;;;;;51.85;20.90;;;;;;;16.65;77.48;92900.47;4976777;28;20348;-73
2022/05/16 00:40:58;;;;;;;51.17;20.05;;;;;;;16.65;77.43;92892.53;4944808;28;20104;-73
2022/05/16 00:44:01;;;;;;;43.33;20.15;;;;;;;16.64;77.94;92894.41;4976678;28;20033;-73
2022/05/16 00:46:30;;;;;;;44.63;20.02;;;;;;;16.63;78.08;92898.13;4983001;28;20431;-73
2022/05/16 00:48:56;;;;;;;49.08;20.05;;;;;;;16.61;77.98;92894.25;4976699;28;20388;-74
2022/05/16 00:51:26;;;;;;;41.47;20.40;;;;;;;16.60;77.93;92892.69;4993917;28;20034;-73
2022/05/16 00:54:05;;;;;;;44.83;20.85;;;;;;;16.61;78.07;92894.25;4976471;28;20038;-73
2022/05/16 00:56:32;;;;;;;54.63;21.75;;;;;;;16.57;78.25;92898.59;4974126;28;20039;-73
2022/05/16 00:58:58;;;;;;;58.35;21.13;;;;;;;16.54;78.08;92897.34;4960506;28;20492;-73
2022/05/16 01:06:56;;;;;;;41.83;20.70;;;;;;;16.50;78.16;92895.66;4976113;28;20579;-73
2022/05/16 01:09:22;;;;;;;47.28;20.98;;;;;;;16.49;78.52;92896.75;4993828;28;20038;-74
2022/05/16 01:11:49;;;;;;;46.97;21.80;;;;;;;16.48;79.22;92900.47;4993351;28;20503;-73
2022/05/16 01:14:37;;;;;;;48.25;21.30;;;;;;;16.47;79.07;92888.38;4959179;28;20042;-73
2022/05/16 01:17:03;;;;;;;50.90;21.88;;;;;;;16.45;78.83;92881.50;4979624;28;20035;-74
2022/05/16 01:19:28;;;;;;;47.80;22.27;;;;;;;16.44;78.45;92890.53;4974634;28;20093;-73
2022/05/16 01:22:00;;;;;;;61.85;22.83;;;;;;;16.42;78.93;92887.44;4956940;28;20396;-74
2022/05/16 01:24:27;;;;;;;49.28;21.02;;;;;;;16.39;78.55;92888.06;4973968;28;20085;-73
2022/05/16 01:26:52;;;;;;;54.10;21.48;;;;;;;16.38;78.68;92880.44;4957743;28;20038;-73
2022/05/16 01:29:20;;;;;;;58.55;22.33;;;;;;;16.35;78.79;92881.84;4974101;28;20109;-73
2022/05/16 01:31:46;;;;;;;50.75;22.67;;;;;;;16.31;78.79;92885.41;4987275;28;20043;-73
2022/05/16 01:34:12;;;;;;;62.65;22.92;;;;;;;16.29;78.82;92883.09;4976040;28;20096;-74
2022/05/16 01:36:39;;;;;;;50.90;22.85;;;;;;;16.27;79.14;92887.13;4991694;28;20037;-73
2022/05/16 01:39:05;;;;;;;59.15;22.90;;;;;;;16.22;79.28;92890.69;4990731;28;20085;-73
2022/05/16 01:41:31;;;;;;;70.00;23.58;;;;;;;16.21;79.41;92891.78;4993303;28;20046;-73
2022/05/16 01:44:00;;;;;;;50.35;21.95;;;;;;;16.18;79.61;92887.13;4992857;28;20154;-74
2022/05/16 01:46:33;;;;;;;54.58;23.15;;;;;;;16.18;79.35;92889.75;4992943;28;20073;-73
2022/05/16 01:48:58;;;;;;;46.95;22.85;;;;;;;16.16;79.52;92884.00;4989290;28;20034;-73
2022/05/16 01:51:24;;;;;;;51.35;22.52;;;;;;;16.12;79.48;92889.16;4975242;28;20033;-73
2022/05/16 01:53:50;;;;;;;53.35;23.63;;;;;;;16.08;79.31;92888.22;4989706;28;20041;-73
2022/05/16 01:56:16;;;;;;;59.13;22.92;;;;;;;16.06;79.43;92884.34;4978688;28;20464;-74
2022/05/16 01:58:42;;;;;;;53.10;23.00;;;;;;;16.06;79.79;92884.34;4973348;28;20054;-74
2022/05/16 02:01:09;;;;;;;50.85;23.65;;;;;;;16.06;79.53;92882.47;4972108;28;20049;-73
2022/05/16 02:03:39;;;;;;;56.05;23.75;;;;;;;16.06;79.60;92884.34;4992569;28;20145;-74
2022/05/16 02:06:05;;;;;;;47.58;22.08;;;;;;;16.04;79.73;92882.00;4991339;28;20129;-73
2022/05/16 02:08:31;;;;;;;50.85;22.85;;;;;;;16.00;79.51;92881.81;4974362;28;20077;-73
2022/05/16 02:10:56;;;;;;;52.85;22.48;;;;;;;15.97;79.54;92879.81;4974125;28;20519;-74
2022/05/16 02:13:22;;;;;;;51.88;22.90;;;;;;;15.96;79.28;92874.84;4975419;28;20535;-73
2022/05/16 02:15:47;;;;;;;55.88;23.85;;;;;;;15.94;79.97;92877.00;4992398;28;20030;-73
2022/05/16 02:18:13;;;;;;;51.55;23.80;;;;;;;15.92;79.87;92874.69;4975289;28;20518;-73
2022/05/16 02:20:39;;;;;;;54.00;23.95;;;;;;;15.89;79.85;92870.00;4974547;28;20061;-73
2022/05/16 02:25:51;;;;;;;46.10;23.92;;;;;;;15.87;79.92;92868.78;4987772;28;20480;-73
2022/05/16 02:28:19;;;;;;;54.95;23.52;;;;;;;15.84;79.89;92870.16;4939962;28;20122;-74
2022/05/16 02:30:45;;;;;;;47.35;22.60;;;;;;;15.82;80.13;92867.06;4974363;28;20454;-73
2022/05/16 02:33:14;;;;;;;53.25;23.25;;;;;;;15.81;79.81;92868.16;4974320;28;20484;-73
2022/05/16 02:35:40;;;;;;;50.38;23.35;;;;;;;15.79;79.88;92862.41;4973775;28;20496;-74
2022/05/16 02:38:07;;;;;;;57.30;23.33;;;;;;;15.79;80.14;92862.41;4972801;28;20116;-73
2022/05/16 02:40:34;;;;;;;52.72;24.95;;;;;;;15.74;80.37;92865.19;4972852;28;20046;-73
2022/05/16 02:43:00;;;;;;;52.72;24.10;;;;;;;15.71;80.25;92863.16;4973660;28;20034;-73
2022/05/16 02:45:28;;;;;;;58.33;25.55;;;;;;;15.68;80.25;92866.41;4974052;28;20041;-73
2022/05/16 02:47:54;;;;;;;56.67;24.00;;;;;;;15.68;80.53;92861.13;4957811;28;20093;-73
2022/05/16 02:50:23;;;;;;;53.33;24.25;;;;;;;15.65;80.41;92865.16;4972669;28;20046;-73
2022/05/16 02:52:53;;;;;;;58.63;25.10;;;;;;;15.63;80.97;92872.59;4972616;28;20039;-73
2022/05/16 02:55:19;;;;;;;60.38;25.10;;;;;;;15.62;80.90;92865.75;4986718;28;20030;-74
2022/05/16 02:57:45;;;;;;;52.83;24.52;;;;;;;15.61;80.49;92862.34;4957157;28;20042;-73
2022/05/16 03:00:12;;;;;;;57.38;23.67;;;;;;;15.61;80.85;92864.97;4979395;28;20436;-73
2022/05/16 03:02:39;;;;;;;59.20;25.80;;;;;;;15.60;80.93;92863.44;4970996;28;20023;-73
2022/05/16 03:05:06;;;;;;;63.42;24.95;;;;;;;15.58;81.12;92856.88;4978593;28;20085;-73
2022/05/16 03:07:32;;;;;;;58.20;24.70;;;;;;;15.55;81.10;92860.94;4984761;28;20070;-73
2022/05/16 03:09:58;;;;;;;58.00;24.38;;;;;;;15.54;81.09;92855.97;4972223;28;20473;-73
2022/05/16 03:12:24;;;;;;;69.65;24.48;;;;;;;15.52;80.80;92851.00;4954936;28;20439;-74
2022/05/16 03:14:49;;;;;;;63.00;25.08;;;;;;;15.52;80.98;92858.91;4939105;28;20042;-73
2022/05/16 03:17:15;;;;;;;57.53;24.33;;;;;;;15.51;81.15;92856.56;4977673;28;20142;-73
2022/05/16 03:19:41;;;;;;;51.22;23.05;;;;;;;15.49;81.55;92862.16;4982808;28;20496;-74
2022/05/16 03:22:07;;;;;;;53.80;23.85;;;;;;;15.47;81.36;92853.78;4971934;28;20049;-73
2022/05/16 03:24:33;;;;;;;61.95;24.15;;;;;;;15.46;81.46;92862.75;4972028;28;20029;-73
2022/05/16 03:26:59;;;;;;;64.13;25.90;;;;;;;15.45;81.43;92855.94;4985683;28;20054;-74
2022/05/16 03:29:25;;;;;;;53.50;24.75;;;;;;;15.45;81.68;92852.53;4990887;28;20070;-73
2022/05/16 03:31:50;;;;;;;52.00;23.92;;;;;;;15.45;81.42;92853.31;4972615;28;20127;-74
2022/05/16 03:34:16;;;;;;;60.22;24.80;;;;;;;15.43;81.69;92850.19;4993353;28;20037;-73
2022/05/16 03:36:42;;;;;;;55.08;24.42;;;;;;;15.40;81.68;92854.22;4982501;28;20050;-73
2022/05/16 03:41:53;;;;;;;65.20;26.02;;;;;;;15.37;81.97;92851.41;4980835;28;20065;-74
2022/05/16 03:44:20;;;;;;;61.55;24.38;;;;;;;15.36;81.68;92852.50;4977740;28;20058;-74
2022/05/16 03:46:45;;;;;;;55.53;23.60;;;;;;;15.35;82.18;92857.00;4976165;28;20615;-74
2022/05/16 03:49:11;;;;;;;54.70;23.83;;;;;;;15.34;82.49;92859.94;4976481;28;20042;-74
2022/05/16 03:51:38;;;;;;;46.75;22.85;;;;;;;15.32;82.17;92860.25;4995360;28;20479;-74
2022/05/16 03:54:04;;;;;;;51.95;23.92;;;;;;;15.33;81.98;92863.66;4977432;28;20035;-73
2022/05/16 03:56:30;;;;;;;51.45;23.15;;;;;;;15.35;82.43;92866.78;4993231;28;20038;-71
2022/05/16 03:58:57;;;;;;;56.60;24.17;;;;;;;15.34;82.46;92868.63;4976826;28;20259;-74
2022/05/16 04:01:24;;;;;;;58.70;25.25;;;;;;;15.38;82.83;92866.19;4958485;28;20045;-72
2022/05/16 04:03:51;;;;;;;51.03;23.63;;;;;;;15.34;82.91;92859.94;4944045;28;20085;-72
2022/05/16 04:06:18;;;;;;;53.30;24.45;;;;;;;15.33;83.12;92863.66;4973178;28;20038;-73
2022/05/16 04:08:45;;;;;;;62.55;24.92;;;;;;;15.32;82.91;92868.16;4974792;28;20061;-73
2022/05/16 04:11:14;;;;;;;63.25;25.02;;;;;;;15.34;83.28;92873.13;4985728;28;20510;-74
2022/05/16 04:13:41;;;;;;;55.65;24.27;;;;;;;15.35;83.25;92877.31;4977263;28;20018;-74
2022/05/16 04:16:07;;;;;;;59.33;26.13;;;;;;;15.36;83.42;92873.63;4961531;28;20053;-74
2022/05/16 04:18:33;;;;;;;54.47;25.63;;;;;;;15.36;84.11;92865.69;4976967;28;20034;-73
2022/05/16 04:21:00;;;;;;;66.20;26.48;;;;;;;15.38;83.98;92866.94;4990772;28;20061;-74
2022/05/16 04:23:26;;;;;;;59.85;25.58;;;;;;;15.39;85.25;92865.09;4960222;28;20069;-75
2022/05/16 04:25:51;;;;;;;58.42;25.90;;;;;;;15.44;84.68;92872.84;4995856;28;20070;-76
2022/05/16 04:28:17;;;;;;;65.38;25.55;;;;;;;15.46;84.35;92875.19;4973141;28;20046;-74
2022/05/16 04:30:44;;;;;;;62.38;25.70;;;;;;;15.55;84.03;92876.75;4978148;28;20046;-74
2022/05/16 04:33:10;;;;;;;58.30;25.23;;;;;;;15.64;83.87;92873.38;4981151;28;20047;-74
2022/05/16 04:35:38;;;;;;;58.55;25.75;;;;;;;15.69;84.12;92881.13;4975384;28;20045;-74
2022/05/16 04:38:06;;;;;;;65.53;24.63;;;;;;;15.75;83.33;92879.94;4988647;28;20062;-74
2022/05/16 04:40:33;;;;;;;61.95;27.45;;;;;;;15.80;83.74;92882.41;4972531;28;20038;-74
2022/05/16 04:42:59;;;;;;;58.42;24.52;;;;;;;15.88;82.43;92886.19;4969251;28;20041;-74
2022/05/16 04:45:29;;;;;;;59.28;24.85;;;;;;;15.96;82.08;92878.28;4993137;28;20038;-74
2022/05/16 04:47:58;;;;;;;60.58;26.58;;;;;;;16.02;81.93;92887.56;4991544;28;20061;-73
2022/05/16 04:50:33;;;;;;;58.30;24.83;;;;;;;16.09;81.79;92892.41;4974801;28;20158;-74
2022/05/16 04:52:59;;;;;;;62.42;26.23;;;;;;;16.15;81.79;92885.88;4975790;28;20038;-74
2022/05/16 04:55:27;;;;;;;55.85;25.33;;;;;;;16.21;81.39;92894.41;4976850;28;20113;-74
2022/05/16 04:57:53;;;;;;;57.92;25.42;;;;;;;16.30;81.28;92894.41;4994713;28;20050;-74
2022/05/16 05:00:20;;;;;;;68.75;27.33;;;;;;;16.36;81.66;92891.31;4977244;28;20436;-74
2022/05/16 05:02:47;;;;;;;62.05;26.83;;;;;;;16.43;81.48;92899.53;4988765;28;20046;-74
2022/05/16 05:05:14;;;;;;;59.83;25.80;;;;;;;16.52;81.27;92896.13;4992291;28;20039;-74
2022/05/16 05:07:40;;;;;;;56.78;23.95;;;;;;;16.56;81.01;92891.78;4992649;28;20550;-74
2022/05/16 05:15:38;;;;;;;57.85;24.63;;;;;;;16.79;80.59;92916.13;4993726;28;20058;-77
2022/05/16 05:18:04;;;;;;;60.38;24.17;;;;;;;16.85;80.98;92910.41;4993645;28;20071;-75
2022/05/16 05:20:32;;;;;;;60.28;25.60;;;;;;;16.94;81.12;92913.03;4985825;28;20038;-75
2022/05/16 05:22:59;;;;;;;56.88;23.25;;;;;;;17.04;80.58;92927.78;4950294;28;20484;-75
2022/05/16 05:25:25;;;;;;;55.67;23.90;;;;;;;17.12;80.02;92924.34;4974759;28;20129;-76
2022/05/16 05:27:51;;;;;;;57.58;23.83;;;;;;;17.11;80.00;92914.84;4993328;28;20052;-75
2022/05/16 05:30:21;;;;;;;59.85;23.92;;;;;;;17.17;79.98;92924.16;4976298;28;20035;-75
2022/05/16 05:32:47;;;;;;;53.83;22.50;;;;;;;17.23;79.36;92927.44;4992010;28;20041;-75
2022/05/16 05:35:14;;;;;;;50.47;22.42;;;;;;;17.27;79.42;92934.44;4986726;28;20050;-76
2022/05/16 05:37:40;;;;;;;57.38;23.00;;;;;;;17.41;79.12;92941.38;4975253;28;20579;-75
2022/05/16 05:40:07;;;;;;;51.22;22.23;;;;;;;17.56;79.16;92926.81;4973870;28;20039;-74
2022/05/16 05:42:33;;;;;;;57.38;22.23;;;;;;;17.76;79.00;92943.88;4973505;28;20030;-75
2022/05/16 05:45:00;;;;;;;52.67;22.42;;;;;;;17.95;76.50;92933.69;4974961;28;20026;-75
2022/05/16 05:47:26;;;;;;;46.60;22.65;;;;;;;18.18;75.19;92942.09;4975681;28;20074;-75
2022/05/16 05:49:52;;;;;;;49.40;22.60;;;;;;;18.19;74.45;92940.22;4975778;28;20038;-74
2022/05/16 05:52:18;;;;;;;54.85;22.90;;;;;;;18.28;74.65;92935.63;4988758;28;20038;-73
2022/05/16 05:54:45;;;;;;;45.13;21.77;;;;;;;18.34;74.11;92931.72;4974989;28;20086;-73
2022/05/16 05:57:11;;;;;;;53.30;23.85;;;;;;;18.33;73.44;92932.81;4978696;28;20050;-73
2022/05/16 05:59:38;;;;;;;42.90;20.20;;;;;;;18.57;72.51;92932.16;4958198;28;20018;-73
2022/05/16 06:02:05;;;;;;;43.25;21.40;;;;;;;19.28;70.21;92933.84;4974610;28;20034;-72
2022/05/16 06:04:30;;;;;;;53.53;20.60;;;;;;;19.71;68.63;92929.19;4973582;28;20117;-74
2022/05/16 06:06:56;;;;;;;39.88;20.15;;;;;;;19.59;69.56;92935.22;4973771;28;20124;-74
2022/05/16 06:09:22;;;;;;;46.60;19.80;;;;;;;19.82;68.89;92929.50;4959487;28;20038;-74
2022/05/16 06:11:48;;;;;;;43.35;18.90;;;;;;;20.09;67.83;92934.13;4975503;28;20045;-74
2022/05/16 06:14:15;;;;;;;48.30;20.58;;;;;;;20.77;65.12;92935.31;4959326;28;20034;-74
2022/05/16 06:16:41;;;;;;;46.22;19.70;;;;;;;21.28;63.71;92940.88;4955289;28;20030;-74
2022/05/16 06:19:08;;;;;;;46.63;18.55;;;;;;;21.89;63.23;92938.94;4956092;28;20043;-75
2022/05/16 06:21:35;;;;;;;47.88;20.55;;;;;;;22.33;62.65;92936.88;4956146;28;20121;-74
2022/05/16 06:24:01;;;;;;;38.55;19.13;;;;;;;22.53;62.17;92939.59;4973116;28;20050;-74
2022/05/16 06:26:28;;;;;;;57.75;19.63;;;;;;;22.46;61.95;92950.88;4973335;28;20057;-74
2022/05/16 06:28:56;;;;;;;54.55;18.98;;;;;;;23.24;59.63;92945.59;4973127;28;20508;-74
2022/05/16 06:31:24;;;;;;;63.30;20.23;;;;;;;23.36;59.67;92948.06;4955840;28;20038;-74
2022/05/16 06:33:50;;;;;;;40.85;18.15;;;;;;;23.00;59.79;92944.75;4961340;28;20035;-74
2022/05/16 06:36:16;;;;;;;43.35;17.98;;;;;;;22.85;58.92;92948.22;4975091;28;20064;-74
2022/05/16 06:38:42;;;;;;;36.97;18.48;;;;;;;22.90;60.65;92953.31;4992211;28;20516;-74
2022/05/16 06:41:08;;;;;;;35.78;17.75;;;;;;;22.84;60.56;92946.69;4975182;28;20046;-74
2022/05/16 06:43:34;;;;;;;40.95;19.08;;;;;;;22.28;62.88;92949.72;4992065;28;20034;-74
2022/05/16 06:46:02;;;;;;;38.25;18.35;;;;;;;22.00;65.12;92950.63;4974398;28;20022;-74
2022/05/16 06:48:28;;;;;;;46.15;20.83;;;;;;;21.87;65.95;92963.25;4955919;28;20097;-74
2022/05/16 06:50:55;;;;;;;48.67;22.38;;;;;;;21.79;66.16;92951.63;4969415;28;20038;-74
2022/05/16 06:53:27;;;;;;;46.83;20.27;;;;;;;21.69;66.10;92962.06;4990644;28;20034;-74
2022/05/16 06:55:54;;;;;;;44.88;20.70;;;;;;;21.41;66.30;92954.88;4985391;28;20045;-74
2022/05/16 06:58:19;;;;;;;40.03;21.23;;;;;;;21.32;67.23;92951.59;4974463;28;20052;-74
2022/05/16 07:00:45;;;;;;;38.00;20.15;;;;;;;21.20;67.17;92957.75;4974627;28;20137;-74
2022/05/16 07:03:12;;;;;;;46.85;19.60;;;;;;;21.35;65.92;92954.34;4991686;28;20030;-74
2022/05/16 07:05:38;;;;;;;50.42;21.73;;;;;;;21.57;65.55;92960.22;4966127;28;20053;-74
2022/05/16 07:08:04;;;;;;;36.95;18.90;;;;;;;21.54;65.58;92960.91;4962658;28;20078;-74
2022/05/16 07:10:31;;;;;;;45.33;22.15;;;;;;;21.47;66.86;92964.19;4957532;28;20570;-73
2022/05/16 07:12:57;;;;;;;40.53;22.67;;;;;;;20.86;68.50;92962.56;4991676;28;20105;-74
2022/05/16 07:15:23;;;;;;;67.72;23.67;;;;;;;20.57;69.73;92964.41;4971451;28;20089;-73
2022/05/16 07:17:49;;;;;;;55.08;24.63;;;;;;;20.22;70.96;92966.00;4939167;28;20050;-74
2022/05/16 07:20:14;;;;;;;46.92;22.75;;;;;;;20.24;71.82;92961.94;4943034;28;20485;-74
2022/05/16 07:22:42;;;;;;;44.95;23.02;;;;;;;20.39;71.37;92963.09;4991937;28;20524;-74
2022/05/16 07:25:09;;;;;;;44.83;22.90;;;;;;;20.48;71.40;92966.41;4991517;28;20373;-74
2022/05/16 07:30:19;;;;;;;46.97;22.25;;;;;;;20.83;69.89;92976.53;4991497;28;20428;-74
2022/05/16 07:32:45;;;;;;;54.28;23.95;;;;;;;21.41;68.32;92976.19;4991973;28;20062;-74
2022/05/16 07:35:18;;;;;;;54.40;24.40;;;;;;;21.70;66.34;92975.00;5001456;28;20029;-74
2022/05/16 07:37:44;;;;;;;41.20;20.08;;;;;;;21.81;62.94;92978.72;4976043;28;20046;-73
2022/05/16 07:40:12;;;;;;;42.28;17.52;;;;;;;21.95;58.79;92974.84;4991339;28;20052;-74
2022/05/16 07:42:38;;;;;;;52.05;20.17;;;;;;;21.85;61.29;92975.38;4973943;28;20042;-74
2022/05/16 07:45:06;;;;;;;39.25;19.17;;;;;;;21.61;61.94;92977.06;4973689;28;20097;-74
2022/05/16 07:47:33;;;;;;;42.70;19.65;;;;;;;21.71;61.56;92976.56;4956580;28;20428;-73
2022/05/16 07:50:00;;;;;;;37.03;17.92;;;;;;;21.88;60.53;92972.78;4973982;28;20117;-74
2022/05/16 07:52:27;;;;;;;29.38;14.15;;;;;;;21.32;64.21;92980.88;4991117;28;20521;-73
2022/05/16 07:54:54;;;;;;;42.05;19.63;;;;;;;20.92;65.83;92977.19;4973788;28;20034;-74
2022/05/16 07:57:20;;;;;;;42.58;20.08;;;;;;;20.70;66.58;92978.47;4990880;28;20023;-73
2022/05/16 07:59:46;;;;;;;46.78;21.52;;;;;;;20.70;65.93;92983.00;4972383;28;20065;-74
2022/05/16 08:02:13;;;;;;;43.58;22.33;;;;;;;20.98;65.62;92981.16;4957665;28;20039;-73
2022/05/16 08:04:39;;;;;;;41.13;19.45;;;;;;;21.32;65.96;92978.22;4991044;28;20043;-73
2022/05/16 08:07:04;;;;;;;42.25;20.20;;;;;;;21.57;62.84;92970.88;4991255;28;20048;-73
2022/05/16 08:12:31;;;;;;;47.85;18.45;;;;;;;22.13;59.54;92972.59;4959122;28;20074;-73
2022/05/16 08:14:57;;;;;;;52.95;20.58;;;;;;;22.14;58.54;92972.25;4971693;28;20050;-73
2022/05/16 08:17:24;;;;;;;40.00;18.95;;;;;;;22.39;59.48;92969.41;4971523;28;20023;-73
2022/05/16 08:19:50;;;;;;;40.15;20.05;;;;;;;22.34;57.05;92970.44;4972717;28;20066;-74
2022/05/16 08:22:17;;;;;;;36.20;20.60;;;;;;;22.02;61.73;92969.66;4972825;28;20122;-74
2022/05/16 08:24:43;;;;;;;42.17;20.95;;;;;;;21.65;62.32;92972.63;4957904;28;20033;-74
2022/05/16 08:27:09;;;;;;;42.15;21.52;;;;;;;21.05;64.67;92971.78;4942433;28;20591;-73
2022/05/16 08:29:35;;;;;;;39.00;21.65;;;;;;;20.86;66.85;92978.53;4958816;28;20038;-73
2022/05/16 08:32:03;;;;;;;51.42;22.15;;;;;;;20.89;67.61;92974.41;4975003;28;20039;-73
2022/05/16 08:34:29;;;;;;;48.15;24.40;;;;;;;21.10;65.90;92975.00;4958235;28;20413;-73
2022/05/16 08:40:03;;;;;;;51.28;24.17;;;;;;;21.80;65.11;92973.75;4994089;28;20488;-74
2022/05/16 08:42:47;;;;;;;46.15;21.10;;;;;;;22.07;64.29;92972.09;4945781;28;20043;-73
2022/05/16 08:45:41;;;;;;;53.55;23.05;;;;;;;21.96;64.86;92977.16;4987299;28;20045;-74
2022/05/16 08:48:22;;;;;;;58.83;25.70;;;;;;;21.81;64.97;92973.38;4991937;28;20046;-73
2022/05/16 08:51:17;;;;;;;45.95;23.58;;;;;;;22.03;63.88;92977.34;4976158;28;20038;-73
2022/05/16 08:54:09;;;;;;;50.40;22.70;;;;;;;22.06;64.29;92975.09;4986760;28;20460;-75
2022/05/16 08:56:38;;;;;;;49.92;23.50;;;;;;;22.39;61.69;92975.50;4980254;28;20042;-74
2022/05/16 08:59:14;;;;;;;45.80;22.70;;;;;;;22.37;63.17;92969.75;4975878;28;20030;-74
2022/05/16 09:01:49;;;;;;;47.03;21.42;;;;;;;22.45;62.68;92976.03;4986223;28;20038;-74
2022/05/16 09:04:24;;;;;;;29.17;12.27;;;;;;;22.39;59.53;92980.84;4993400;28;20030;-74
2022/05/16 09:07:07;;;;;;;48.95;23.00;;;;;;;22.45;60.20;92978.69;4975948;28;20065;-74
2022/05/16 09:09:47;;;;;;;48.92;22.63;;;;;;;22.45;59.77;92976.03;4993530;28;20031;-78
2022/05/16 09:12:15;;;;;;;53.08;22.63;;;;;;;22.55;59.25;92980.78;4982899;28;20154;-79
2022/05/16 09:14:49;;;;;;;43.22;21.63;;;;;;;22.62;59.29;92978.28;4976457;28;20032;-75
2022/05/16 09:17:51;;;;;;;43.35;21.90;;;;;;;22.46;60.26;92974.88;4987591;28;20030;-74
2022/05/16 09:20:23;;;;;;;42.05;22.02;;;;;;;22.45;60.74;92974.13;4976284;28;20439;-75
2022/05/16 09:23:05;;;;;;;50.25;22.52;;;;;;;22.67;60.09;92974.56;4992702;28;20539;-75
2022/05/16 09:25:49;;;;;;;;;;;;;;;22.64;59.20;92976.03;4977762;28;20035;-75
2022/05/16 09:31:21;;;;;;;45.25;21.08;;;;;;;22.60;59.88;92967.16;4974202;28;20066;-75
2022/05/16 09:33:52;;;;;;;54.33;23.50;;;;;;;22.68;58.68;92973.44;4987416;28;20400;-75
2022/05/16 09:36:41;;;;;;;48.03;22.10;;;;;;;22.90;60.80;92969.31;5003001;28;20338;-75
2022/05/16 09:39:09;;;;;;;43.55;19.77;;;;;;;22.98;60.00;92962.22;4958177;28;20054;-75
2022/05/16 09:41:34;;;;;;;38.88;19.05;;;;;;;23.07;57.96;92968.91;4973906;28;20042;-75
2022/05/16 09:44:21;;;;;;;42.25;16.67;;;;;;;23.26;58.15;92968.13;4980170;28;20035;-75
2022/05/16 09:46:49;;;;;;;37.00;17.00;;;;;;;23.32;57.18;92959.81;4975031;28;20039;-75
2022/05/16 09:49:26;;;;;;;40.22;18.88;;;;;;;22.74;57.57;92973.94;4973838;28;20073;-74
2022/05/16 09:51:54;;;;;;;32.88;18.85;;;;;;;22.96;58.89;92973.22;4956734;28;20035;-75
2022/05/16 09:54:26;;;;;;;39.45;20.00;;;;;;;23.11;59.81;92963.66;4970234;28;20022;-75
2022/05/16 09:57:22;;;;;;;38.80;18.48;;;;;;;23.17;58.57;92961.44;4974153;28;20034;-75
2022/05/16 09:59:48;;;;;;;30.77;15.57;;;;;;;23.16;58.35;92965.25;4987868;28;20049;-75
2022/05/16 10:02:33;;;;;;;47.33;22.13;;;;;;;23.37;57.33;92963.00;4993130;28;20320;-77
2022/05/16 10:05:19;;;;;;;40.20;19.23;;;;;;;23.26;58.32;92959.34;4977529;28;20516;-76
2022/05/16 10:07:48;;;;;;;42.80;17.88;;;;;;;23.55;55.65;92965.19;4984550;28;20046;-76
2022/05/16 10:10:20;;;;;;;41.55;19.65;;;;;;;23.58;56.50;92975.19;4975526;28;20038;-76
2022/05/16 10:12:46;;;;;;;;;;;;;;;23.71;54.76;92968.53;4975883;28;20113;-74
2022/05/16 10:15:12;;;;;;;35.90;15.25;;;;;;;23.58;52.55;92962.59;4971674;28;19922;-75
2022/05/16 10:17:40;;;;;;;35.25;17.17;;;;;;;23.62;55.30;92960.75;4950442;28;20031;-75
2022/05/16 10:20:23;;;;;;;37.63;16.33;;;;;;;23.55;55.18;92954.50;4981784;28;20022;-78
2022/05/16 10:22:53;;;;;;;37.83;16.90;;;;;;;23.34;53.71;92955.66;4976289;28;20046;-77
2022/05/16 10:25:23;;;;;;;31.27;15.13;;;;;;;23.59;54.70;92966.78;4987409;28;20027;-77
2022/05/16 10:27:51;;;;;;;51.42;18.15;;;;;;;23.63;55.45;92967.63;4992587;28;20077;-76
2022/05/16 10:30:22;;;;;;;44.60;19.25;;;;;;;23.54;54.23;92960.97;4985429;28;20057;-76
2022/05/16 10:35:48;;;;;;;46.85;18.52;;;;;;;24.06;53.49;92941.59;4980252;28;20030;-77
2022/05/16 10:38:32;;;;;;;33.65;17.63;;;;;;;24.15;54.11;92938.69;4969375;28;20043;-78
2022/05/16 10:41:01;;;;;;;39.97;18.30;;;;;;;24.19;52.26;92944.84;4985664;28;20418;-77
2022/05/16 10:43:53;;;;;;;38.22;19.15;;;;;;;24.31;54.04;92947.31;4976242;28;20022;-78
2022/05/16 10:46:25;;;;;;;43.70;18.88;;;;;;;24.16;54.12;92942.91;4965520;28;20381;-77
2022/05/16 10:48:55;;;;;;;42.58;18.30;;;;;;;23.47;55.32;92949.03;4989235;28;20030;-76
2022/05/16 10:51:31;;;;;;;40.45;17.90;;;;;;;23.02;56.25;92949.75;4966449;28;20038;-76
2022/05/16 10:54:12;;;;;;;37.75;18.35;;;;;;;23.44;54.23;92933.72;4955151;28;20034;-77
2022/05/16 10:57:13;;;;;;;37.55;17.48;;;;;;;23.47;54.08;92935.69;4974664;28;20034;-76
2022/05/16 10:59:58;;;;;;;48.28;21.80;;;;;;;22.99;56.00;92945.88;4974269;28;20045;-76
2022/05/16 11:02:55;;;;;;;36.97;18.40;;;;;;;23.13;55.72;92947.28;4968766;28;20057;-76
2022/05/16 11:05:38;;;;;;;34.50;15.52;;;;;;;22.99;55.55;92932.53;4983432;28;20046;-76
2022/05/16 11:08:16;;;;;;;47.78;19.58;;;;;;;22.30;54.68;92937.59;4961055;28;20053;-75
2022/05/16 11:11:03;;;;;;;52.75;19.08;;;;;;;22.35;56.97;92928.53;4968793;28;20080;-76
2022/05/16 11:13:47;;;;;;;57.08;21.13;;;;;;;22.12;56.28;92934.50;4962380;28;20058;-76
2022/05/16 11:16:21;;;;;;;43.60;20.48;;;;;;;22.18;56.68;92940.34;4973084;28;20038;-75
2022/05/16 11:19:05;;;;;;;43.17;19.73;;;;;;;21.94;55.53;92942.09;4991668;28;20114;-76
2022/05/16 11:21:47;;;;;;;78.53;20.42;;;;;;;21.95;56.20;92943.66;4965521;28;20045;-76
2022/05/16 11:24:22;;;;;;;54.70;19.92;;;;;;;21.86;56.84;92951.03;4986407;28;20035;-75
2022/05/16 11:26:58;;;;;;;59.17;21.58;;;;;;;21.80;56.37;92947.88;4974191;28;20038;-76
2022/05/16 11:29:56;;;;;;;60.17;21.48;;;;;;;21.62;61.67;92944.00;4970959;28;20034;-79
2022/05/16 11:32:56;;;;;;;56.92;21.25;;;;;;;21.36;55.96;92952.44;4963385;28;20817;-76
2022/05/16 11:35:30;;;;;;;41.42;18.30;;;;;;;21.42;60.07;92946.56;4989288;28;20038;-76
2022/05/16 11:38:19;;;;;;;38.65;17.38;;;;;;;21.91;60.92;92932.13;5005956;28;20058;-75
2022/05/16 11:41:20;;;;;;;40.45;17.75;;;;;;;22.06;61.24;92927.13;4991629;28;20459;-76
2022/05/16 11:43:48;;;;;;;53.00;19.98;;;;;;;22.15;57.36;92920.47;4992323;28;20038;-76
2022/05/16 11:46:33;;;;;;;40.88;18.63;;;;;;;22.35;56.16;92923.22;5011138;28;20486;-76
2022/05/16 11:49:40;;;;;;;48.05;19.88;;;;;;;22.39;57.55;92916.06;5003855;28;20111;-76
2022/05/16 11:52:31;;;;;;;52.33;23.58;;;;;;;22.50;59.32;92919.72;4983479;28;20510;-77
2022/05/16 12:01:02;;;;;;;53.95;21.50;;;;;;;22.19;60.66;92899.22;4994319;28;20065;-76
2022/05/16 12:03:44;;;;;;;49.80;20.67;;;;;;;22.18;66.46;92897.69;5004077;28;20451;-76
2022/05/16 12:06:25;;;;;;;51.88;23.60;;;;;;;22.22;64.70;92895.88;4977846;28;20093;-76
2022/05/16 12:09:15;;;;;;;54.53;24.05;;;;;;;22.34;62.49;92892.34;5000275;28;20041;-76